sensor_id;sensor_type;location;lat;lon;timestamp;P1;durP1;ratioP1;P2;durP2;ratioP2
54929;SDS011;40833;53.238;6.576;2023-08-06T00:00:21;10.00;;;8.73;;
54929;SDS011;40833;53.238;6.576;2023-08-06T00:02:47;12.63;;;9.77;;
54929;SDS011;40833;53.238;6.576;2023-08-06T00:05:13;12.67;;;8.47;;
54929;SDS011;40833;53.238;6.576;2023-08-06T00:07:43;10.13;;;8.90;;
54929;SDS011;40833;53.238;6.576;2023-08-06T00:10:10;10.17;;;8.10;;
54929;SDS011;40833;53.238;6.576;2023-08-06T00:12:36;12.87;;;7.67;;
54929;SDS011;40833;53.238;6.576;2023-08-06T00:15:02;9.90;;;8.90;;
54929;SDS011;40833;53.238;6.576;2023-08-06T00:17:27;13.90;;;8.63;;
54929;SDS011;40833;53.238;6.576;2023-08-06T00:19:53;12.37;;;8.27;;
54929;SDS011;40833;53.238;6.576;2023-08-06T00:22:19;15.27;;;9.33;;
54929;SDS011;40833;53.238;6.576;2023-08-06T00:24:44;16.67;;;9.17;;
54929;SDS011;40833;53.238;6.576;2023-08-06T00:27:10;13.37;;;8.13;;
54929;SDS011;40833;53.238;6.576;2023-08-06T00:29:35;15.33;;;10.33;;
54929;SDS011;40833;53.238;6.576;2023-08-06T00:32:01;15.70;;;8.93;;
54929;SDS011;40833;53.238;6.576;2023-08-06T00:34:27;9.00;;;7.37;;
54929;SDS011;40833;53.238;6.576;2023-08-06T00:36:53;13.37;;;8.83;;
54929;SDS011;40833;53.238;6.576;2023-08-06T00:39:19;15.63;;;8.10;;
54929;SDS011;40833;53.238;6.576;2023-08-06T00:41:45;12.83;;;7.77;;
54929;SDS011;40833;53.238;6.576;2023-08-06T00:44:10;10.97;;;7.47;;
54929;SDS011;40833;53.238;6.576;2023-08-06T00:46:36;12.33;;;8.83;;
54929;SDS011;40833;53.238;6.576;2023-08-06T00:49:02;12.33;;;9.00;;
54929;SDS011;40833;53.238;6.576;2023-08-06T00:51:28;15.60;;;9.90;;
54929;SDS011;40833;53.238;6.576;2023-08-06T00:53:54;9.63;;;8.17;;
54929;SDS011;40833;53.238;6.576;2023-08-06T00:56:20;9.67;;;7.87;;
54929;SDS011;40833;53.238;6.576;2023-08-06T00:58:46;12.43;;;8.93;;
54929;SDS011;40833;53.238;6.576;2023-08-06T01:01:12;13.47;;;8.37;;
54929;SDS011;40833;53.238;6.576;2023-08-06T01:03:38;15.63;;;9.73;;
54929;SDS011;40833;53.238;6.576;2023-08-06T01:06:04;10.03;;;8.43;;
54929;SDS011;40833;53.238;6.576;2023-08-06T01:08:35;11.33;;;8.63;;
54929;SDS011;40833;53.238;6.576;2023-08-06T01:11:34;13.57;;;10.00;;
54929;SDS011;40833;53.238;6.576;2023-08-06T01:14:23;11.80;;;8.63;;
54929;SDS011;40833;53.238;6.576;2023-08-06T01:17:11;12.03;;;8.77;;
54929;SDS011;40833;53.238;6.576;2023-08-06T01:19:37;12.70;;;9.53;;
54929;SDS011;40833;53.238;6.576;2023-08-06T01:22:03;15.60;;;9.10;;
54929;SDS011;40833;53.238;6.576;2023-08-06T01:24:29;17.00;;;9.67;;
54929;SDS011;40833;53.238;6.576;2023-08-06T01:26:59;14.93;;;10.00;;
54929;SDS011;40833;53.238;6.576;2023-08-06T01:29:41;19.83;;;11.53;;
54929;SDS011;40833;53.238;6.576;2023-08-06T01:32:14;17.53;;;10.60;;
54929;SDS011;40833;53.238;6.576;2023-08-06T01:34:41;20.60;;;13.00;;
54929;SDS011;40833;53.238;6.576;2023-08-06T01:37:10;15.27;;;10.43;;
54929;SDS011;40833;53.238;6.576;2023-08-06T01:39:37;17.50;;;10.87;;
54929;SDS011;40833;53.238;6.576;2023-08-06T01:42:04;13.73;;;9.83;;
54929;SDS011;40833;53.238;6.576;2023-08-06T01:44:31;19.27;;;11.03;;
54929;SDS011;40833;53.238;6.576;2023-08-06T01:46:57;12.60;;;9.90;;
54929;SDS011;40833;53.238;6.576;2023-08-06T01:49:22;18.17;;;12.03;;
54929;SDS011;40833;53.238;6.576;2023-08-06T01:51:48;17.60;;;10.80;;
54929;SDS011;40833;53.238;6.576;2023-08-06T01:54:14;15.60;;;12.03;;
54929;SDS011;40833;53.238;6.576;2023-08-06T01:56:40;14.30;;;10.90;;
54929;SDS011;40833;53.238;6.576;2023-08-06T01:59:05;20.17;;;12.00;;
54929;SDS011;40833;53.238;6.576;2023-08-06T02:01:31;19.13;;;12.07;;
54929;SDS011;40833;53.238;6.576;2023-08-06T02:03:57;18.83;;;13.10;;
54929;SDS011;40833;53.238;6.576;2023-08-06T02:06:22;13.93;;;10.80;;
54929;SDS011;40833;53.238;6.576;2023-08-06T02:08:48;17.37;;;12.37;;
54929;SDS011;40833;53.238;6.576;2023-08-06T02:11:13;19.40;;;13.40;;
54929;SDS011;40833;53.238;6.576;2023-08-06T02:13:39;22.10;;;12.87;;
54929;SDS011;40833;53.238;6.576;2023-08-06T02:16:06;17.50;;;13.20;;
54929;SDS011;40833;53.238;6.576;2023-08-06T02:18:33;20.30;;;14.17;;
54929;SDS011;40833;53.238;6.576;2023-08-06T02:20:59;21.03;;;12.57;;
54929;SDS011;40833;53.238;6.576;2023-08-06T02:23:25;16.47;;;12.57;;
54929;SDS011;40833;53.238;6.576;2023-08-06T02:26:01;25.50;;;15.23;;
54929;SDS011;40833;53.238;6.576;2023-08-06T02:28:28;18.77;;;13.90;;
54929;SDS011;40833;53.238;6.576;2023-08-06T02:30:54;27.37;;;15.67;;
54929;SDS011;40833;53.238;6.576;2023-08-06T02:33:20;25.10;;;15.37;;
54929;SDS011;40833;53.238;6.576;2023-08-06T02:35:46;15.90;;;12.70;;
54929;SDS011;40833;53.238;6.576;2023-08-06T02:38:11;18.77;;;14.17;;
54929;SDS011;40833;53.238;6.576;2023-08-06T02:40:42;23.03;;;15.90;;
54929;SDS011;40833;53.238;6.576;2023-08-06T02:43:09;20.33;;;14.95;;
54929;SDS011;40833;53.238;6.576;2023-08-06T02:45:35;17.80;;;15.00;;
54929;SDS011;40833;53.238;6.576;2023-08-06T02:48:00;22.77;;;16.90;;
54929;SDS011;40833;53.238;6.576;2023-08-06T02:50:27;30.47;;;15.23;;
54929;SDS011;40833;53.238;6.576;2023-08-06T02:52:53;18.93;;;13.80;;
54929;SDS011;40833;53.238;6.576;2023-08-06T02:55:18;23.30;;;16.73;;
54929;SDS011;40833;53.238;6.576;2023-08-06T02:57:44;21.20;;;15.83;;
54929;SDS011;40833;53.238;6.576;2023-08-06T03:00:10;18.87;;;14.23;;
54929;SDS011;40833;53.238;6.576;2023-08-06T03:02:36;23.23;;;14.60;;
54929;SDS011;40833;53.238;6.576;2023-08-06T03:05:02;18.80;;;15.20;;
54929;SDS011;40833;53.238;6.576;2023-08-06T03:07:28;16.30;;;13.90;;
54929;SDS011;40833;53.238;6.576;2023-08-06T03:09:54;17.03;;;13.43;;
54929;SDS011;40833;53.238;6.576;2023-08-06T03:12:20;18.37;;;13.00;;
54929;SDS011;40833;53.238;6.576;2023-08-06T03:14:46;17.20;;;13.17;;
54929;SDS011;40833;53.238;6.576;2023-08-06T03:17:11;18.93;;;13.60;;
54929;SDS011;40833;53.238;6.576;2023-08-06T03:19:37;18.60;;;12.77;;
54929;SDS011;40833;53.238;6.576;2023-08-06T03:22:03;18.57;;;12.13;;
54929;SDS011;40833;53.238;6.576;2023-08-06T03:24:29;22.83;;;15.33;;
54929;SDS011;40833;53.238;6.576;2023-08-06T03:26:54;18.33;;;14.23;;
54929;SDS011;40833;53.238;6.576;2023-08-06T03:29:20;22.47;;;13.53;;
54929;SDS011;40833;53.238;6.576;2023-08-06T03:31:46;19.47;;;12.77;;
54929;SDS011;40833;53.238;6.576;2023-08-06T03:34:12;17.70;;;13.67;;
54929;SDS011;40833;53.238;6.576;2023-08-06T03:36:38;17.83;;;12.57;;
54929;SDS011;40833;53.238;6.576;2023-08-06T03:39:03;21.00;;;13.47;;
54929;SDS011;40833;53.238;6.576;2023-08-06T03:41:29;21.37;;;14.07;;
54929;SDS011;40833;53.238;6.576;2023-08-06T03:43:55;20.17;;;14.70;;
54929;SDS011;40833;53.238;6.576;2023-08-06T03:46:21;22.43;;;14.50;;
54929;SDS011;40833;53.238;6.576;2023-08-06T03:48:46;17.63;;;14.20;;
54929;SDS011;40833;53.238;6.576;2023-08-06T03:51:12;24.87;;;14.17;;
54929;SDS011;40833;53.238;6.576;2023-08-06T03:53:38;26.90;;;15.73;;
54929;SDS011;40833;53.238;6.576;2023-08-06T03:56:03;17.43;;;14.23;;
54929;SDS011;40833;53.238;6.576;2023-08-06T03:58:29;19.90;;;14.40;;
54929;SDS011;40833;53.238;6.576;2023-08-06T04:01:01;23.70;;;15.03;;
54929;SDS011;40833;53.238;6.576;2023-08-06T04:03:28;25.43;;;14.77;;
54929;SDS011;40833;53.238;6.576;2023-08-06T04:05:54;23.03;;;15.80;;
54929;SDS011;40833;53.238;6.576;2023-08-06T04:08:20;20.80;;;14.23;;
54929;SDS011;40833;53.238;6.576;2023-08-06T04:10:49;24.97;;;16.80;;
54929;SDS011;40833;53.238;6.576;2023-08-06T04:13:16;20.50;;;14.73;;
54929;SDS011;40833;53.238;6.576;2023-08-06T04:15:42;20.77;;;13.07;;
54929;SDS011;40833;53.238;6.576;2023-08-06T04:18:07;21.20;;;14.37;;
54929;SDS011;40833;53.238;6.576;2023-08-06T04:20:33;22.47;;;13.67;;
54929;SDS011;40833;53.238;6.576;2023-08-06T04:22:59;22.60;;;13.20;;
54929;SDS011;40833;53.238;6.576;2023-08-06T04:25:30;16.50;;;13.05;;
54929;SDS011;40833;53.238;6.576;2023-08-06T04:27:56;16.47;;;13.60;;
54929;SDS011;40833;53.238;6.576;2023-08-06T04:30:21;17.23;;;13.10;;
54929;SDS011;40833;53.238;6.576;2023-08-06T04:32:49;17.00;;;12.97;;
54929;SDS011;40833;53.238;6.576;2023-08-06T04:35:15;17.13;;;13.93;;
54929;SDS011;40833;53.238;6.576;2023-08-06T04:37:41;16.73;;;12.27;;
54929;SDS011;40833;53.238;6.576;2023-08-06T04:40:06;18.03;;;12.43;;
54929;SDS011;40833;53.238;6.576;2023-08-06T04:42:32;24.07;;;13.67;;
54929;SDS011;40833;53.238;6.576;2023-08-06T04:44:58;21.87;;;12.57;;
54929;SDS011;40833;53.238;6.576;2023-08-06T04:47:26;16.83;;;12.43;;
54929;SDS011;40833;53.238;6.576;2023-08-06T04:49:52;15.23;;;12.43;;
54929;SDS011;40833;53.238;6.576;2023-08-06T04:52:18;14.60;;;11.53;;
54929;SDS011;40833;53.238;6.576;2023-08-06T04:54:43;27.50;;;14.37;;
54929;SDS011;40833;53.238;6.576;2023-08-06T04:57:09;19.67;;;12.00;;
54929;SDS011;40833;53.238;6.576;2023-08-06T04:59:35;16.40;;;11.30;;
54929;SDS011;40833;53.238;6.576;2023-08-06T05:02:00;13.37;;;10.40;;
54929;SDS011;40833;53.238;6.576;2023-08-06T05:04:26;15.90;;;11.27;;
54929;SDS011;40833;53.238;6.576;2023-08-06T05:06:52;12.87;;;9.97;;
54929;SDS011;40833;53.238;6.576;2023-08-06T05:09:18;15.50;;;11.87;;
54929;SDS011;40833;53.238;6.576;2023-08-06T05:11:45;18.13;;;11.70;;
54929;SDS011;40833;53.238;6.576;2023-08-06T05:14:11;12.53;;;9.97;;
54929;SDS011;40833;53.238;6.576;2023-08-06T05:16:37;15.77;;;9.97;;
54929;SDS011;40833;53.238;6.576;2023-08-06T05:19:02;13.40;;;10.37;;
54929;SDS011;40833;53.238;6.576;2023-08-06T05:21:28;11.43;;;9.07;;
54929;SDS011;40833;53.238;6.576;2023-08-06T05:23:54;14.17;;;9.87;;
54929;SDS011;40833;53.238;6.576;2023-08-06T05:26:19;13.33;;;9.60;;
54929;SDS011;40833;53.238;6.576;2023-08-06T05:28:45;16.40;;;11.70;;
54929;SDS011;40833;53.238;6.576;2023-08-06T05:31:11;12.70;;;9.80;;
54929;SDS011;40833;53.238;6.576;2023-08-06T05:33:37;12.97;;;9.10;;
54929;SDS011;40833;53.238;6.576;2023-08-06T05:36:02;15.90;;;10.30;;
54929;SDS011;40833;53.238;6.576;2023-08-06T05:38:29;13.93;;;11.60;;
54929;SDS011;40833;53.238;6.576;2023-08-06T05:40:55;12.53;;;10.10;;
54929;SDS011;40833;53.238;6.576;2023-08-06T05:43:21;12.97;;;10.33;;
54929;SDS011;40833;53.238;6.576;2023-08-06T05:45:49;14.63;;;10.17;;
54929;SDS011;40833;53.238;6.576;2023-08-06T05:48:15;16.07;;;10.93;;
54929;SDS011;40833;53.238;6.576;2023-08-06T05:50:41;14.43;;;10.23;;
54929;SDS011;40833;53.238;6.576;2023-08-06T05:53:06;15.70;;;11.43;;
54929;SDS011;40833;53.238;6.576;2023-08-06T05:55:32;16.13;;;11.40;;
54929;SDS011;40833;53.238;6.576;2023-08-06T05:57:58;13.87;;;10.83;;
54929;SDS011;40833;53.238;6.576;2023-08-06T06:00:24;14.87;;;10.27;;
54929;SDS011;40833;53.238;6.576;2023-08-06T06:02:50;15.17;;;11.13;;
54929;SDS011;40833;53.238;6.576;2023-08-06T06:05:15;15.63;;;10.33;;
54929;SDS011;40833;53.238;6.576;2023-08-06T06:07:41;10.37;;;9.20;;
54929;SDS011;40833;53.238;6.576;2023-08-06T06:10:07;10.77;;;8.70;;
54929;SDS011;40833;53.238;6.576;2023-08-06T06:12:33;11.20;;;8.90;;
54929;SDS011;40833;53.238;6.576;2023-08-06T06:14:59;13.43;;;8.23;;
54929;SDS011;40833;53.238;6.576;2023-08-06T06:17:26;10.10;;;8.23;;
54929;SDS011;40833;53.238;6.576;2023-08-06T06:19:54;13.50;;;8.80;;
54929;SDS011;40833;53.238;6.576;2023-08-06T06:22:20;10.43;;;7.83;;
54929;SDS011;40833;53.238;6.576;2023-08-06T06:24:45;8.80;;;7.90;;
54929;SDS011;40833;53.238;6.576;2023-08-06T06:27:11;10.37;;;7.90;;
54929;SDS011;40833;53.238;6.576;2023-08-06T06:29:37;9.20;;;7.70;;
54929;SDS011;40833;53.238;6.576;2023-08-06T06:32:02;7.27;;;6.57;;
54929;SDS011;40833;53.238;6.576;2023-08-06T06:34:28;8.53;;;6.20;;
54929;SDS011;40833;53.238;6.576;2023-08-06T06:36:54;6.23;;;5.70;;
54929;SDS011;40833;53.238;6.576;2023-08-06T06:39:20;10.10;;;6.60;;
54929;SDS011;40833;53.238;6.576;2023-08-06T06:41:46;11.17;;;7.17;;
54929;SDS011;40833;53.238;6.576;2023-08-06T06:44:12;8.33;;;6.40;;
54929;SDS011;40833;53.238;6.576;2023-08-06T06:46:38;6.97;;;5.40;;
54929;SDS011;40833;53.238;6.576;2023-08-06T06:49:04;6.63;;;5.50;;
54929;SDS011;40833;53.238;6.576;2023-08-06T06:51:29;5.73;;;5.17;;
54929;SDS011;40833;53.238;6.576;2023-08-06T06:53:56;7.60;;;5.47;;
54929;SDS011;40833;53.238;6.576;2023-08-06T06:56:22;5.77;;;5.27;;
54929;SDS011;40833;53.238;6.576;2023-08-06T06:58:48;12.70;;;6.60;;
54929;SDS011;40833;53.238;6.576;2023-08-06T07:01:14;7.47;;;5.40;;
54929;SDS011;40833;53.238;6.576;2023-08-06T07:03:39;6.67;;;5.97;;
54929;SDS011;40833;53.238;6.576;2023-08-06T07:06:06;11.48;;;5.40;;
54929;SDS011;40833;53.238;6.576;2023-08-06T07:08:32;7.67;;;5.70;;
54929;SDS011;40833;53.238;6.576;2023-08-06T07:11:04;6.93;;;5.13;;
54929;SDS011;40833;53.238;6.576;2023-08-06T07:13:30;8.20;;;4.80;;
54929;SDS011;40833;53.238;6.576;2023-08-06T07:15:57;5.27;;;4.87;;
54929;SDS011;40833;53.238;6.576;2023-08-06T07:18:23;5.35;;;4.53;;
54929;SDS011;40833;53.238;6.576;2023-08-06T07:20:53;5.28;;;4.78;;
54929;SDS011;40833;53.238;6.576;2023-08-06T07:23:23;7.90;;;4.55;;
54929;SDS011;40833;53.238;6.576;2023-08-06T07:25:49;5.75;;;5.30;;
54929;SDS011;40833;53.238;6.576;2023-08-06T07:28:15;5.32;;;4.80;;
54929;SDS011;40833;53.238;6.576;2023-08-06T07:30:41;4.65;;;4.25;;
54929;SDS011;40833;53.238;6.576;2023-08-06T07:33:08;5.03;;;4.53;;
54929;SDS011;40833;53.238;6.576;2023-08-06T07:35:35;5.40;;;4.18;;
54929;SDS011;40833;53.238;6.576;2023-08-06T07:38:01;4.97;;;4.50;;
54929;SDS011;40833;53.238;6.576;2023-08-06T07:40:27;6.13;;;4.18;;
54929;SDS011;40833;53.238;6.576;2023-08-06T07:42:53;5.45;;;5.05;;
54929;SDS011;40833;53.238;6.576;2023-08-06T07:45:19;7.88;;;4.25;;
54929;SDS011;40833;53.238;6.576;2023-08-06T07:47:45;6.68;;;5.07;;
54929;SDS011;40833;53.238;6.576;2023-08-06T07:50:11;5.38;;;4.88;;
54929;SDS011;40833;53.238;6.576;2023-08-06T07:52:37;4.60;;;4.20;;
54929;SDS011;40833;53.238;6.576;2023-08-06T07:55:03;4.75;;;4.13;;
54929;SDS011;40833;53.238;6.576;2023-08-06T07:57:30;4.05;;;3.63;;
54929;SDS011;40833;53.238;6.576;2023-08-06T07:59:57;4.87;;;4.47;;
54929;SDS011;40833;53.238;6.576;2023-08-06T08:02:22;5.55;;;4.65;;
54929;SDS011;40833;53.238;6.576;2023-08-06T08:04:48;5.60;;;3.50;;
54929;SDS011;40833;53.238;6.576;2023-08-06T08:07:14;4.22;;;3.83;;
54929;SDS011;40833;53.238;6.576;2023-08-06T08:09:40;3.58;;;3.30;;
54929;SDS011;40833;53.238;6.576;2023-08-06T08:12:05;3.53;;;3.30;;
54929;SDS011;40833;53.238;6.576;2023-08-06T08:14:31;3.63;;;3.33;;
54929;SDS011;40833;53.238;6.576;2023-08-06T08:17:03;5.90;;;3.70;;
54929;SDS011;40833;53.238;6.576;2023-08-06T08:19:30;3.75;;;3.45;;
54929;SDS011;40833;53.238;6.576;2023-08-06T08:21:56;4.22;;;3.88;;
54929;SDS011;40833;53.238;6.576;2023-08-06T08:24:22;5.20;;;3.78;;
54929;SDS011;40833;53.238;6.576;2023-08-06T08:26:52;9.27;;;3.92;;
54929;SDS011;40833;53.238;6.576;2023-08-06T08:29:19;5.05;;;3.30;;
54929;SDS011;40833;53.238;6.576;2023-08-06T08:31:45;8.15;;;3.10;;
54929;SDS011;40833;53.238;6.576;2023-08-06T08:34:14;3.28;;;2.80;;
54929;SDS011;40833;53.238;6.576;2023-08-06T08:36:40;5.75;;;2.80;;
54929;SDS011;40833;53.238;6.576;2023-08-06T08:39:05;3.72;;;2.50;;
54929;SDS011;40833;53.238;6.576;2023-08-06T08:41:31;4.22;;;2.80;;
54929;SDS011;40833;53.238;6.576;2023-08-06T08:43:58;2.90;;;2.58;;
54929;SDS011;40833;53.238;6.576;2023-08-06T08:46:34;2.47;;;2.05;;
54929;SDS011;40833;53.238;6.576;2023-08-06T08:49:03;2.72;;;2.50;;
54929;SDS011;40833;53.238;6.576;2023-08-06T08:51:29;2.78;;;2.33;;
54929;SDS011;40833;53.238;6.576;2023-08-06T08:53:55;3.47;;;2.60;;
54929;SDS011;40833;53.238;6.576;2023-08-06T08:56:22;5.35;;;2.05;;
54929;SDS011;40833;53.238;6.576;2023-08-06T08:58:48;2.35;;;2.15;;
54929;SDS011;40833;53.238;6.576;2023-08-06T09:01:14;2.67;;;2.20;;
54929;SDS011;40833;53.238;6.576;2023-08-06T09:03:40;2.25;;;2.10;;
54929;SDS011;40833;53.238;6.576;2023-08-06T09:06:08;5.70;;;2.95;;
54929;SDS011;40833;53.238;6.576;2023-08-06T09:08:37;3.03;;;2.10;;
54929;SDS011;40833;53.238;6.576;2023-08-06T09:11:08;3.05;;;2.47;;
54929;SDS011;40833;53.238;6.576;2023-08-06T09:13:36;4.38;;;2.95;;
54929;SDS011;40833;53.238;6.576;2023-08-06T09:16:03;1.67;;;1.58;;
54929;SDS011;40833;53.238;6.576;2023-08-06T09:18:29;3.85;;;2.80;;
54929;SDS011;40833;53.238;6.576;2023-08-06T09:20:56;2.53;;;1.60;;
54929;SDS011;40833;53.238;6.576;2023-08-06T09:23:28;2.67;;;1.13;;
54929;SDS011;40833;53.238;6.576;2023-08-06T09:25:58;2.40;;;1.35;;
54929;SDS011;40833;53.238;6.576;2023-08-06T09:28:24;1.25;;;1.23;;
54929;SDS011;40833;53.238;6.576;2023-08-06T09:31:01;4.78;;;1.60;;
54929;SDS011;40833;53.238;6.576;2023-08-06T09:33:29;2.30;;;1.13;;
54929;SDS011;40833;53.238;6.576;2023-08-06T09:35:54;1.25;;;1.15;;
54929;SDS011;40833;53.238;6.576;2023-08-06T09:38:20;2.13;;;1.20;;
54929;SDS011;40833;53.238;6.576;2023-08-06T09:40:46;3.63;;;1.05;;
54929;SDS011;40833;53.238;6.576;2023-08-06T09:43:12;2.78;;;1.02;;
54929;SDS011;40833;53.238;6.576;2023-08-06T09:45:39;0.70;;;0.60;;
54929;SDS011;40833;53.238;6.576;2023-08-06T09:48:05;0.85;;;0.70;;
54929;SDS011;40833;53.238;6.576;2023-08-06T09:50:33;3.60;;;0.90;;
54929;SDS011;40833;53.238;6.576;2023-08-06T09:53:04;1.20;;;0.98;;
54929;SDS011;40833;53.238;6.576;2023-08-06T09:55:31;3.05;;;0.85;;
54929;SDS011;40833;53.238;6.576;2023-08-06T09:57:58;0.85;;;0.47;;
54929;SDS011;40833;53.238;6.576;2023-08-06T10:00:24;1.85;;;0.80;;
54929;SDS011;40833;53.238;6.576;2023-08-06T10:02:51;2.13;;;1.00;;
54929;SDS011;40833;53.238;6.576;2023-08-06T10:05:20;2.70;;;0.90;;
54929;SDS011;40833;53.238;6.576;2023-08-06T10:07:46;1.52;;;0.82;;
54929;SDS011;40833;53.238;6.576;2023-08-06T10:10:14;2.95;;;1.25;;
54929;SDS011;40833;53.238;6.576;2023-08-06T10:12:40;2.00;;;0.77;;
54929;SDS011;40833;53.238;6.576;2023-08-06T10:15:12;2.03;;;0.75;;
54929;SDS011;40833;53.238;6.576;2023-08-06T10:17:41;0.73;;;0.73;;
54929;SDS011;40833;53.238;6.576;2023-08-06T10:20:10;2.65;;;0.90;;
54929;SDS011;40833;53.238;6.576;2023-08-06T10:22:37;1.52;;;0.80;;
54929;SDS011;40833;53.238;6.576;2023-08-06T10:25:09;4.18;;;0.73;;
54929;SDS011;40833;53.238;6.576;2023-08-06T10:27:39;1.02;;;0.70;;
54929;SDS011;40833;53.238;6.576;2023-08-06T10:32:54;4.78;;;0.95;;
54929;SDS011;40833;53.238;6.576;2023-08-06T10:38:12;2.10;;;0.95;;
54929;SDS011;40833;53.238;6.576;2023-08-06T10:43:28;2.55;;;0.80;;
54929;SDS011;40833;53.238;6.576;2023-08-06T10:46:27;2.10;;;0.65;;
54929;SDS011;40833;53.238;6.576;2023-08-06T10:48:53;0.88;;;0.88;;
54929;SDS011;40833;53.238;6.576;2023-08-06T10:51:19;1.42;;;0.73;;
54929;SDS011;40833;53.238;6.576;2023-08-06T10:53:45;1.10;;;0.57;;
54929;SDS011;40833;53.238;6.576;2023-08-06T10:56:19;2.50;;;0.40;;
54929;SDS011;40833;53.238;6.576;2023-08-06T10:58:47;0.68;;;0.55;;
54929;SDS011;40833;53.238;6.576;2023-08-06T11:01:14;1.23;;;1.00;;
54929;SDS011;40833;53.238;6.576;2023-08-06T11:03:41;0.80;;;0.70;;
54929;SDS011;40833;53.238;6.576;2023-08-06T11:06:07;4.07;;;0.40;;
54929;SDS011;40833;53.238;6.576;2023-08-06T11:08:34;0.93;;;0.50;;
54929;SDS011;40833;53.238;6.576;2023-08-06T11:11:11;0.90;;;0.68;;
54929;SDS011;40833;53.238;6.576;2023-08-06T11:13:56;1.85;;;0.65;;
54929;SDS011;40833;53.238;6.576;2023-08-06T11:16:22;1.45;;;0.90;;
54929;SDS011;40833;53.238;6.576;2023-08-06T11:18:49;1.38;;;0.68;;
54929;SDS011;40833;53.238;6.576;2023-08-06T11:21:19;0.60;;;0.60;;
54929;SDS011;40833;53.238;6.576;2023-08-06T11:23:47;1.00;;;0.60;;
54929;SDS011;40833;53.238;6.576;2023-08-06T11:26:18;1.38;;;0.63;;
54929;SDS011;40833;53.238;6.576;2023-08-06T11:28:48;1.00;;;0.88;;
54929;SDS011;40833;53.238;6.576;2023-08-06T11:31:18;0.80;;;0.75;;
54929;SDS011;40833;53.238;6.576;2023-08-06T11:33:49;1.38;;;0.70;;
54929;SDS011;40833;53.238;6.576;2023-08-06T11:36:28;2.00;;;0.80;;
54929;SDS011;40833;53.238;6.576;2023-08-06T11:39:00;1.45;;;0.80;;
54929;SDS011;40833;53.238;6.576;2023-08-06T11:41:28;3.55;;;0.80;;
54929;SDS011;40833;53.238;6.576;2023-08-06T11:43:54;1.67;;;0.50;;
54929;SDS011;40833;53.238;6.576;2023-08-06T11:46:20;1.05;;;0.80;;
54929;SDS011;40833;53.238;6.576;2023-08-06T11:48:54;2.75;;;0.65;;
54929;SDS011;40833;53.238;6.576;2023-08-06T11:51:24;0.73;;;0.55;;
54929;SDS011;40833;53.238;6.576;2023-08-06T11:53:56;2.60;;;0.70;;
54929;SDS011;40833;53.238;6.576;2023-08-06T11:56:23;2.22;;;0.55;;
54929;SDS011;40833;53.238;6.576;2023-08-06T11:58:51;1.50;;;0.82;;
54929;SDS011;40833;53.238;6.576;2023-08-06T12:01:17;1.42;;;0.75;;
54929;SDS011;40833;53.238;6.576;2023-08-06T12:03:43;1.10;;;0.85;;
54929;SDS011;40833;53.238;6.576;2023-08-06T12:06:09;0.57;;;0.57;;
54929;SDS011;40833;53.238;6.576;2023-08-06T12:08:35;1.60;;;0.77;;
54929;SDS011;40833;53.238;6.576;2023-08-06T12:11:00;1.45;;;0.60;;
54929;SDS011;40833;53.238;6.576;2023-08-06T12:13:26;1.30;;;0.60;;
54929;SDS011;40833;53.238;6.576;2023-08-06T12:15:53;1.02;;;0.63;;
54929;SDS011;40833;53.238;6.576;2023-08-06T12:18:19;1.85;;;0.70;;
54929;SDS011;40833;53.238;6.576;2023-08-06T12:20:45;3.15;;;0.65;;
54929;SDS011;40833;53.238;6.576;2023-08-06T12:23:10;0.88;;;0.60;;
54929;SDS011;40833;53.238;6.576;2023-08-06T12:25:40;1.15;;;0.70;;
54929;SDS011;40833;53.238;6.576;2023-08-06T12:28:06;2.88;;;0.77;;
54929;SDS011;40833;53.238;6.576;2023-08-06T12:30:33;3.72;;;1.00;;
54929;SDS011;40833;53.238;6.576;2023-08-06T12:32:59;1.20;;;0.57;;
54929;SDS011;40833;53.238;6.576;2023-08-06T12:35:25;1.40;;;0.70;;
54929;SDS011;40833;53.238;6.576;2023-08-06T12:37:51;2.38;;;0.90;;
54929;SDS011;40833;53.238;6.576;2023-08-06T12:40:19;2.25;;;0.70;;
54929;SDS011;40833;53.238;6.576;2023-08-06T12:42:45;1.80;;;0.93;;
54929;SDS011;40833;53.238;6.576;2023-08-06T12:45:11;0.80;;;0.47;;
54929;SDS011;40833;53.238;6.576;2023-08-06T12:47:37;1.65;;;0.73;;
54929;SDS011;40833;53.238;6.576;2023-08-06T12:50:03;2.10;;;0.80;;
54929;SDS011;40833;53.238;6.576;2023-08-06T12:52:28;1.23;;;0.50;;
54929;SDS011;40833;53.238;6.576;2023-08-06T12:54:54;1.05;;;0.60;;
54929;SDS011;40833;53.238;6.576;2023-08-06T12:57:20;1.98;;;0.57;;
54929;SDS011;40833;53.238;6.576;2023-08-06T12:59:46;0.68;;;0.52;;
54929;SDS011;40833;53.238;6.576;2023-08-06T13:02:11;1.80;;;0.40;;
54929;SDS011;40833;53.238;6.576;2023-08-06T13:04:37;0.93;;;0.55;;
54929;SDS011;40833;53.238;6.576;2023-08-06T13:07:03;2.47;;;0.60;;
54929;SDS011;40833;53.238;6.576;2023-08-06T13:09:31;1.50;;;0.60;;
54929;SDS011;40833;53.238;6.576;2023-08-06T13:11:57;0.77;;;0.55;;
54929;SDS011;40833;53.238;6.576;2023-08-06T13:14:24;2.60;;;0.65;;
54929;SDS011;40833;53.238;6.576;2023-08-06T13:16:50;1.65;;;0.63;;
54929;SDS011;40833;53.238;6.576;2023-08-06T13:19:16;1.58;;;0.40;;
54929;SDS011;40833;53.238;6.576;2023-08-06T13:24:15;2.05;;;1.08;;
54929;SDS011;40833;53.238;6.576;2023-08-06T13:26:40;2.35;;;0.80;;
54929;SDS011;40833;53.238;6.576;2023-08-06T13:29:06;0.95;;;0.50;;
54929;SDS011;40833;53.238;6.576;2023-08-06T13:31:32;0.93;;;0.80;;
54929;SDS011;40833;53.238;6.576;2023-08-06T13:33:58;0.65;;;0.30;;
54929;SDS011;40833;53.238;6.576;2023-08-06T13:36:26;1.05;;;0.73;;
54929;SDS011;40833;53.238;6.576;2023-08-06T13:38:52;1.83;;;0.50;;
54929;SDS011;40833;53.238;6.576;2023-08-06T13:41:18;1.85;;;0.47;;
54929;SDS011;40833;53.238;6.576;2023-08-06T13:43:44;0.82;;;0.70;;
54929;SDS011;40833;53.238;6.576;2023-08-06T13:46:10;0.82;;;0.52;;
54929;SDS011;40833;53.238;6.576;2023-08-06T13:48:41;1.38;;;0.57;;
54929;SDS011;40833;53.238;6.576;2023-08-06T13:51:07;1.35;;;0.50;;
54929;SDS011;40833;53.238;6.576;2023-08-06T13:53:33;1.20;;;0.70;;
54929;SDS011;40833;53.238;6.576;2023-08-06T13:55:59;1.15;;;0.40;;
54929;SDS011;40833;53.238;6.576;2023-08-06T13:58:24;0.93;;;0.65;;
54929;SDS011;40833;53.238;6.576;2023-08-06T14:00:52;1.67;;;0.60;;
54929;SDS011;40833;53.238;6.576;2023-08-06T14:03:19;1.05;;;0.80;;
54929;SDS011;40833;53.238;6.576;2023-08-06T14:05:45;0.55;;;0.40;;
54929;SDS011;40833;53.238;6.576;2023-08-06T14:08:11;0.85;;;0.60;;
54929;SDS011;40833;53.238;6.576;2023-08-06T14:10:36;0.85;;;0.57;;
54929;SDS011;40833;53.238;6.576;2023-08-06T14:13:02;2.10;;;0.50;;
54929;SDS011;40833;53.238;6.576;2023-08-06T14:15:28;2.03;;;0.50;;
54929;SDS011;40833;53.238;6.576;2023-08-06T14:17:53;0.38;;;0.38;;
54929;SDS011;40833;53.238;6.576;2023-08-06T14:20:19;2.35;;;0.50;;
54929;SDS011;40833;53.238;6.576;2023-08-06T14:22:45;1.88;;;0.40;;
54929;SDS011;40833;53.238;6.576;2023-08-06T14:25:10;1.30;;;0.57;;
54929;SDS011;40833;53.238;6.576;2023-08-06T14:27:36;0.40;;;0.40;;
54929;SDS011;40833;53.238;6.576;2023-08-06T14:30:04;0.57;;;0.30;;
54929;SDS011;40833;53.238;6.576;2023-08-06T14:32:31;2.92;;;0.88;;
54929;SDS011;40833;53.238;6.576;2023-08-06T14:34:57;0.77;;;0.50;;
54929;SDS011;40833;53.238;6.576;2023-08-06T14:37:24;2.47;;;0.50;;
54929;SDS011;40833;53.238;6.576;2023-08-06T14:39:50;0.50;;;0.30;;
54929;SDS011;40833;53.238;6.576;2023-08-06T14:42:16;0.60;;;0.38;;
54929;SDS011;40833;53.238;6.576;2023-08-06T14:44:42;0.77;;;0.35;;
54929;SDS011;40833;53.238;6.576;2023-08-06T14:47:08;0.40;;;0.40;;